sensor_id;sensor_type;location;lat;lon;timestamp;P1;durP1;ratioP1;P2;durP2;ratioP2
50429;SDS011;36359;41.556;-8.418;2023-05-10T00:01:23;10.63;;;1.83;;
50429;SDS011;36359;41.556;-8.418;2023-05-10T00:03:49;10.05;;;1.77;;
50429;SDS011;36359;41.556;-8.418;2023-05-10T00:06:14;6.43;;;1.60;;
50429;SDS011;36359;41.556;-8.418;2023-05-10T00:08:40;12.45;;;2.15;;
50429;SDS011;36359;41.556;-8.418;2023-05-10T00:11:06;10.57;;;2.22;;
50429;SDS011;36359;41.556;-8.418;2023-05-10T00:13:31;10.43;;;2.00;;
50429;SDS011;36359;41.556;-8.418;2023-05-10T00:15:57;12.30;;;2.80;;
50429;SDS011;36359;41.556;-8.418;2023-05-10T00:18:23;10.55;;;2.47;;
50429;SDS011;36359;41.556;-8.418;2023-05-10T00:20:49;8.95;;;2.28;;
50429;SDS011;36359;41.556;-8.418;2023-05-10T00:23:15;13.23;;;2.13;;
50429;SDS011;36359;41.556;-8.418;2023-05-10T00:25:40;12.27;;;1.92;;
50429;SDS011;36359;41.556;-8.418;2023-05-10T00:28:06;10.60;;;2.28;;
50429;SDS011;36359;41.556;-8.418;2023-05-10T00:30:32;10.68;;;2.10;;
50429;SDS011;36359;41.556;-8.418;2023-05-10T00:32:57;11.07;;;2.15;;
50429;SDS011;36359;41.556;-8.418;2023-05-10T00:35:23;13.77;;;2.60;;
50429;SDS011;36359;41.556;-8.418;2023-05-10T00:37:49;17.70;;;2.38;;
50429;SDS011;36359;41.556;-8.418;2023-05-10T00:40:15;20.48;;;3.95;;
50429;SDS011;36359;41.556;-8.418;2023-05-10T00:42:43;10.45;;;1.77;;
50429;SDS011;36359;41.556;-8.418;2023-05-10T00:45:09;10.55;;;2.53;;
50429;SDS011;36359;41.556;-8.418;2023-05-10T00:47:35;9.88;;;1.95;;
50429;SDS011;36359;41.556;-8.418;2023-05-10T00:50:01;12.70;;;2.08;;
50429;SDS011;36359;41.556;-8.418;2023-05-10T00:52:28;13.70;;;2.30;;
50429;SDS011;36359;41.556;-8.418;2023-05-10T00:54:54;16.75;;;2.08;;
50429;SDS011;36359;41.556;-8.418;2023-05-10T00:57:21;11.65;;;1.48;;
50429;SDS011;36359;41.556;-8.418;2023-05-10T00:59:47;14.65;;;2.05;;
50429;SDS011;36359;41.556;-8.418;2023-05-10T01:02:13;17.05;;;2.20;;
50429;SDS011;36359;41.556;-8.418;2023-05-10T01:04:39;7.90;;;1.33;;
50429;SDS011;36359;41.556;-8.418;2023-05-10T01:07:05;13.55;;;2.20;;
50429;SDS011;36359;41.556;-8.418;2023-05-10T01:09:31;10.77;;;1.70;;
50429;SDS011;36359;41.556;-8.418;2023-05-10T01:11:57;9.88;;;1.70;;
50429;SDS011;36359;41.556;-8.418;2023-05-10T01:14:24;8.75;;;2.08;;
50429;SDS011;36359;41.556;-8.418;2023-05-10T01:16:51;8.98;;;1.90;;
50429;SDS011;36359;41.556;-8.418;2023-05-10T01:21:58;9.48;;;2.10;;
50429;SDS011;36359;41.556;-8.418;2023-05-10T01:30:18;12.43;;;1.83;;
50429;SDS011;36359;41.556;-8.418;2023-05-10T01:41:39;8.93;;;2.20;;
50429;SDS011;36359;41.556;-8.418;2023-05-10T01:47:14;12.80;;;1.95;;
50429;SDS011;36359;41.556;-8.418;2023-05-10T01:49:47;10.50;;;1.67;;
50429;SDS011;36359;41.556;-8.418;2023-05-10T01:52:16;9.60;;;2.13;;
50429;SDS011;36359;41.556;-8.418;2023-05-10T01:54:49;8.73;;;1.70;;
50429;SDS011;36359;41.556;-8.418;2023-05-10T01:57:19;8.93;;;1.55;;
50429;SDS011;36359;41.556;-8.418;2023-05-10T01:59:48;9.18;;;1.70;;
50429;SDS011;36359;41.556;-8.418;2023-05-10T02:02:17;10.02;;;1.50;;
50429;SDS011;36359;41.556;-8.418;2023-05-10T02:04:43;9.38;;;1.70;;
50429;SDS011;36359;41.556;-8.418;2023-05-10T02:07:11;7.95;;;1.30;;
50429;SDS011;36359;41.556;-8.418;2023-05-10T02:09:39;8.32;;;1.40;;
50429;SDS011;36359;41.556;-8.418;2023-05-10T02:12:07;10.20;;;1.55;;
50429;SDS011;36359;41.556;-8.418;2023-05-10T02:14:35;9.73;;;1.75;;
50429;SDS011;36359;41.556;-8.418;2023-05-10T02:17:02;9.05;;;1.27;;
50429;SDS011;36359;41.556;-8.418;2023-05-10T02:19:30;12.23;;;1.95;;
50429;SDS011;36359;41.556;-8.418;2023-05-10T02:22:03;13.20;;;1.70;;
50429;SDS011;36359;41.556;-8.418;2023-05-10T02:24:31;11.45;;;2.22;;
50429;SDS011;36359;41.556;-8.418;2023-05-10T02:26:59;9.23;;;1.58;;
50429;SDS011;36359;41.556;-8.418;2023-05-10T02:29:27;7.88;;;1.40;;
50429;SDS011;36359;41.556;-8.418;2023-05-10T02:31:55;7.13;;;1.42;;
50429;SDS011;36359;41.556;-8.418;2023-05-10T02:34:23;9.60;;;1.58;;
50429;SDS011;36359;41.556;-8.418;2023-05-10T02:36:50;9.38;;;1.65;;
50429;SDS011;36359;41.556;-8.418;2023-05-10T02:39:21;8.23;;;1.60;;
50429;SDS011;36359;41.556;-8.418;2023-05-10T02:41:48;7.38;;;1.30;;
50429;SDS011;36359;41.556;-8.418;2023-05-10T02:44:16;11.18;;;1.70;;
50429;SDS011;36359;41.556;-8.418;2023-05-10T02:46:45;10.90;;;1.92;;
50429;SDS011;36359;41.556;-8.418;2023-05-10T02:49:12;13.80;;;2.67;;
50429;SDS011;36359;41.556;-8.418;2023-05-10T02:51:40;9.02;;;1.63;;
50429;SDS011;36359;41.556;-8.418;2023-05-10T02:54:11;7.05;;;1.75;;
50429;SDS011;36359;41.556;-8.418;2023-05-10T02:56:42;9.43;;;1.88;;
50429;SDS011;36359;41.556;-8.418;2023-05-10T02:59:15;10.18;;;1.85;;
50429;SDS011;36359;41.556;-8.418;2023-05-10T03:01:41;8.82;;;1.70;;
50429;SDS011;36359;41.556;-8.418;2023-05-10T03:04:07;11.90;;;2.45;;
50429;SDS011;36359;41.556;-8.418;2023-05-10T03:06:33;11.00;;;1.52;;
50429;SDS011;36359;41.556;-8.418;2023-05-10T03:09:01;7.43;;;1.60;;
50429;SDS011;36359;41.556;-8.418;2023-05-10T03:20:11;11.80;;;1.83;;
50429;SDS011;36359;41.556;-8.418;2023-05-10T03:22:44;14.30;;;2.35;;
50429;SDS011;36359;41.556;-8.418;2023-05-10T03:25:12;12.10;;;2.60;;
50429;SDS011;36359;41.556;-8.418;2023-05-10T03:27:42;9.05;;;1.58;;
50429;SDS011;36359;41.556;-8.418;2023-05-10T03:30:10;6.78;;;1.80;;
50429;SDS011;36359;41.556;-8.418;2023-05-10T03:32:37;11.55;;;2.42;;
50429;SDS011;36359;41.556;-8.418;2023-05-10T03:35:10;10.95;;;1.92;;
50429;SDS011;36359;41.556;-8.418;2023-05-10T03:37:37;10.35;;;2.35;;
50429;SDS011;36359;41.556;-8.418;2023-05-10T03:40:04;7.63;;;1.70;;
50429;SDS011;36359;41.556;-8.418;2023-05-10T03:42:33;11.13;;;2.30;;
50429;SDS011;36359;41.556;-8.418;2023-05-10T03:44:58;12.80;;;1.95;;
50429;SDS011;36359;41.556;-8.418;2023-05-10T03:47:24;10.10;;;1.85;;
50429;SDS011;36359;41.556;-8.418;2023-05-10T03:49:50;12.00;;;2.30;;
50429;SDS011;36359;41.556;-8.418;2023-05-10T03:52:17;7.25;;;1.67;;
50429;SDS011;36359;41.556;-8.418;2023-05-10T03:54:43;9.75;;;2.00;;
50429;SDS011;36359;41.556;-8.418;2023-05-10T03:57:09;8.85;;;1.40;;
50429;SDS011;36359;41.556;-8.418;2023-05-10T03:59:35;9.80;;;1.60;;
50429;SDS011;36359;41.556;-8.418;2023-05-10T04:02:01;9.30;;;1.77;;
50429;SDS011;36359;41.556;-8.418;2023-05-10T04:04:28;11.55;;;2.17;;
50429;SDS011;36359;41.556;-8.418;2023-05-10T04:06:54;13.45;;;2.03;;
50429;SDS011;36359;41.556;-8.418;2023-05-10T04:09:20;9.80;;;2.30;;
50429;SDS011;36359;41.556;-8.418;2023-05-10T04:11:46;12.25;;;2.10;;
50429;SDS011;36359;41.556;-8.418;2023-05-10T04:14:12;11.18;;;1.98;;
50429;SDS011;36359;41.556;-8.418;2023-05-10T04:16:37;10.60;;;1.90;;
50429;SDS011;36359;41.556;-8.418;2023-05-10T04:19:03;12.65;;;2.28;;
50429;SDS011;36359;41.556;-8.418;2023-05-10T04:21:29;11.93;;;1.83;;
50429;SDS011;36359;41.556;-8.418;2023-05-10T04:23:55;9.02;;;1.77;;
50429;SDS011;36359;41.556;-8.418;2023-05-10T04:26:21;11.55;;;1.60;;
50429;SDS011;36359;41.556;-8.418;2023-05-10T04:28:47;11.18;;;1.60;;
50429;SDS011;36359;41.556;-8.418;2023-05-10T04:31:12;10.30;;;1.88;;
50429;SDS011;36359;41.556;-8.418;2023-05-10T04:33:38;11.63;;;1.92;;
50429;SDS011;36359;41.556;-8.418;2023-05-10T04:36:04;11.00;;;1.90;;
50429;SDS011;36359;41.556;-8.418;2023-05-10T04:38:30;7.83;;;1.70;;
50429;SDS011;36359;41.556;-8.418;2023-05-10T04:41:09;16.07;;;1.90;;
50429;SDS011;36359;41.556;-8.418;2023-05-10T04:43:35;10.77;;;1.58;;
50429;SDS011;36359;41.556;-8.418;2023-05-10T04:46:02;9.90;;;1.90;;
50429;SDS011;36359;41.556;-8.418;2023-05-10T04:48:28;9.70;;;1.60;;
50429;SDS011;36359;41.556;-8.418;2023-05-10T04:50:54;9.17;;;1.70;;
50429;SDS011;36359;41.556;-8.418;2023-05-10T04:53:19;11.77;;;2.17;;
50429;SDS011;36359;41.556;-8.418;2023-05-10T04:55:45;14.20;;;2.70;;
50429;SDS011;36359;41.556;-8.418;2023-05-10T05:00:37;10.87;;;1.33;;
50429;SDS011;36359;41.556;-8.418;2023-05-10T05:03:03;13.43;;;1.92;;
50429;SDS011;36359;41.556;-8.418;2023-05-10T05:05:29;11.88;;;1.95;;
50429;SDS011;36359;41.556;-8.418;2023-05-10T05:07:54;7.17;;;1.50;;
50429;SDS011;36359;41.556;-8.418;2023-05-10T05:10:20;9.93;;;2.00;;
50429;SDS011;36359;41.556;-8.418;2023-05-10T05:12:46;8.43;;;1.40;;
50429;SDS011;36359;41.556;-8.418;2023-05-10T05:15:11;5.88;;;1.00;;
50429;SDS011;36359;41.556;-8.418;2023-05-10T05:17:37;8.55;;;1.52;;
50429;SDS011;36359;41.556;-8.418;2023-05-10T05:20:03;12.57;;;2.05;;
50429;SDS011;36359;41.556;-8.418;2023-05-10T05:22:29;10.10;;;1.88;;
50429;SDS011;36359;41.556;-8.418;2023-05-10T05:24:55;14.32;;;2.38;;
50429;SDS011;36359;41.556;-8.418;2023-05-10T05:27:21;8.25;;;1.90;;
50429;SDS011;36359;41.556;-8.418;2023-05-10T05:29:53;14.57;;;1.92;;
50429;SDS011;36359;41.556;-8.418;2023-05-10T05:32:19;10.23;;;1.90;;
50429;SDS011;36359;41.556;-8.418;2023-05-10T05:34:45;11.43;;;2.00;;
50429;SDS011;36359;41.556;-8.418;2023-05-10T05:37:17;8.85;;;1.70;;
50429;SDS011;36359;41.556;-8.418;2023-05-10T05:39:45;8.65;;;1.77;;
50429;SDS011;36359;41.556;-8.418;2023-05-10T05:42:11;10.88;;;1.92;;
50429;SDS011;36359;41.556;-8.418;2023-05-10T05:44:37;16.83;;;2.70;;
50429;SDS011;36359;41.556;-8.418;2023-05-10T05:47:03;11.35;;;1.73;;
50429;SDS011;36359;41.556;-8.418;2023-05-10T05:49:30;13.13;;;2.00;;
50429;SDS011;36359;41.556;-8.418;2023-05-10T05:52:02;12.25;;;1.92;;
50429;SDS011;36359;41.556;-8.418;2023-05-10T05:54:29;9.23;;;1.98;;
50429;SDS011;36359;41.556;-8.418;2023-05-10T05:56:56;9.20;;;2.38;;
50429;SDS011;36359;41.556;-8.418;2023-05-10T05:59:25;10.75;;;2.15;;
50429;SDS011;36359;41.556;-8.418;2023-05-10T06:01:51;12.45;;;2.38;;
50429;SDS011;36359;41.556;-8.418;2023-05-10T06:04:18;11.27;;;2.13;;
50429;SDS011;36359;41.556;-8.418;2023-05-10T06:06:44;8.88;;;1.80;;
50429;SDS011;36359;41.556;-8.418;2023-05-10T06:09:10;15.20;;;2.38;;
50429;SDS011;36359;41.556;-8.418;2023-05-10T06:11:36;10.23;;;1.92;;
50429;SDS011;36359;41.556;-8.418;2023-05-10T06:14:02;8.85;;;1.50;;
50429;SDS011;36359;41.556;-8.418;2023-05-10T06:16:29;10.95;;;1.85;;
50429;SDS011;36359;41.556;-8.418;2023-05-10T06:18:56;14.10;;;2.63;;
50429;SDS011;36359;41.556;-8.418;2023-05-10T06:21:22;15.15;;;2.58;;
50429;SDS011;36359;41.556;-8.418;2023-05-10T06:23:47;11.25;;;2.08;;
50429;SDS011;36359;41.556;-8.418;2023-05-10T06:26:13;14.40;;;2.22;;
50429;SDS011;36359;41.556;-8.418;2023-05-10T06:28:45;11.40;;;2.17;;
50429;SDS011;36359;41.556;-8.418;2023-05-10T06:31:11;10.20;;;1.80;;
50429;SDS011;36359;41.556;-8.418;2023-05-10T06:33:37;12.10;;;2.83;;
50429;SDS011;36359;41.556;-8.418;2023-05-10T06:36:03;14.15;;;2.50;;
50429;SDS011;36359;41.556;-8.418;2023-05-10T06:38:29;11.75;;;2.47;;
50429;SDS011;36359;41.556;-8.418;2023-05-10T06:40:54;9.07;;;2.38;;
50429;SDS011;36359;41.556;-8.418;2023-05-10T06:43:20;12.40;;;1.92;;
50429;SDS011;36359;41.556;-8.418;2023-05-10T06:45:47;12.00;;;2.20;;
50429;SDS011;36359;41.556;-8.418;2023-05-10T06:48:13;11.20;;;2.35;;
50429;SDS011;36359;41.556;-8.418;2023-05-10T06:50:39;13.65;;;3.25;;
50429;SDS011;36359;41.556;-8.418;2023-05-10T06:53:04;13.80;;;2.40;;
50429;SDS011;36359;41.556;-8.418;2023-05-10T06:55:30;8.10;;;1.60;;
50429;SDS011;36359;41.556;-8.418;2023-05-10T06:57:56;12.48;;;1.92;;
50429;SDS011;36359;41.556;-8.418;2023-05-10T07:00:21;10.07;;;1.95;;
50429;SDS011;36359;41.556;-8.418;2023-05-10T07:03:06;16.95;;;3.00;;
50429;SDS011;36359;41.556;-8.418;2023-05-10T07:05:33;12.30;;;2.80;;
50429;SDS011;36359;41.556;-8.418;2023-05-10T07:07:59;16.10;;;3.00;;
50429;SDS011;36359;41.556;-8.418;2023-05-10T07:10:25;18.60;;;3.00;;
50429;SDS011;36359;41.556;-8.418;2023-05-10T07:12:52;10.07;;;1.90;;
50429;SDS011;36359;41.556;-8.418;2023-05-10T07:15:21;15.65;;;2.75;;
50429;SDS011;36359;41.556;-8.418;2023-05-10T07:17:51;14.75;;;2.40;;
50429;SDS011;36359;41.556;-8.418;2023-05-10T07:20:17;9.45;;;1.95;;
50429;SDS011;36359;41.556;-8.418;2023-05-10T07:22:46;11.10;;;2.35;;
50429;SDS011;36359;41.556;-8.418;2023-05-10T07:25:12;7.75;;;2.22;;
50429;SDS011;36359;41.556;-8.418;2023-05-10T07:27:38;7.72;;;1.60;;
50429;SDS011;36359;41.556;-8.418;2023-05-10T07:30:04;18.27;;;3.30;;
50429;SDS011;36359;41.556;-8.418;2023-05-10T07:32:30;16.58;;;2.15;;
50429;SDS011;36359;41.556;-8.418;2023-05-10T07:34:56;9.10;;;2.33;;
50429;SDS011;36359;41.556;-8.418;2023-05-10T07:37:22;12.98;;;3.40;;
50429;SDS011;36359;41.556;-8.418;2023-05-10T07:39:48;11.00;;;2.08;;
50429;SDS011;36359;41.556;-8.418;2023-05-10T07:42:14;14.88;;;2.40;;
50429;SDS011;36359;41.556;-8.418;2023-05-10T07:44:40;16.90;;;2.60;;
50429;SDS011;36359;41.556;-8.418;2023-05-10T07:47:07;11.02;;;2.30;;
50429;SDS011;36359;41.556;-8.418;2023-05-10T07:49:39;13.15;;;2.35;;
50429;SDS011;36359;41.556;-8.418;2023-05-10T07:52:06;7.63;;;1.75;;
50429;SDS011;36359;41.556;-8.418;2023-05-10T07:54:32;8.60;;;1.50;;
50429;SDS011;36359;41.556;-8.418;2023-05-10T07:56:59;14.63;;;2.28;;
50429;SDS011;36359;41.556;-8.418;2023-05-10T07:59:25;13.57;;;1.88;;
50429;SDS011;36359;41.556;-8.418;2023-05-10T08:01:51;8.60;;;1.60;;
50429;SDS011;36359;41.556;-8.418;2023-05-10T08:04:19;10.50;;;1.55;;
50429;SDS011;36359;41.556;-8.418;2023-05-10T08:06:45;10.50;;;1.95;;
50429;SDS011;36359;41.556;-8.418;2023-05-10T08:09:11;11.73;;;2.05;;
50429;SDS011;36359;41.556;-8.418;2023-05-10T08:11:37;8.32;;;2.00;;
50429;SDS011;36359;41.556;-8.418;2023-05-10T08:14:03;9.50;;;2.08;;
50429;SDS011;36359;41.556;-8.418;2023-05-10T08:16:30;15.35;;;2.13;;
50429;SDS011;36359;41.556;-8.418;2023-05-10T08:18:56;11.90;;;2.10;;
50429;SDS011;36359;41.556;-8.418;2023-05-10T08:21:21;14.45;;;1.80;;
50429;SDS011;36359;41.556;-8.418;2023-05-10T08:23:48;9.80;;;2.13;;
50429;SDS011;36359;41.556;-8.418;2023-05-10T08:26:14;9.43;;;2.10;;
50429;SDS011;36359;41.556;-8.418;2023-05-10T08:28:40;12.30;;;3.78;;
50429;SDS011;36359;41.556;-8.418;2023-05-10T08:31:06;12.35;;;2.45;;
50429;SDS011;36359;41.556;-8.418;2023-05-10T08:33:32;12.50;;;1.80;;
50429;SDS011;36359;41.556;-8.418;2023-05-10T08:35:57;12.52;;;1.88;;
50429;SDS011;36359;41.556;-8.418;2023-05-10T08:38:26;6.40;;;1.70;;
50429;SDS011;36359;41.556;-8.418;2023-05-10T08:40:55;9.82;;;1.67;;
50429;SDS011;36359;41.556;-8.418;2023-05-10T08:43:27;12.13;;;1.98;;
50429;SDS011;36359;41.556;-8.418;2023-05-10T08:45:56;13.75;;;4.20;;
50429;SDS011;36359;41.556;-8.418;2023-05-10T08:48:25;14.48;;;2.92;;
50429;SDS011;36359;41.556;-8.418;2023-05-10T08:53:24;9.40;;;1.90;;
50429;SDS011;36359;41.556;-8.418;2023-05-10T08:55:52;12.60;;;2.15;;
50429;SDS011;36359;41.556;-8.418;2023-05-10T08:58:18;11.98;;;2.45;;
50429;SDS011;36359;41.556;-8.418;2023-05-10T09:00:44;7.80;;;1.80;;
50429;SDS011;36359;41.556;-8.418;2023-05-10T09:03:11;10.13;;;1.80;;
50429;SDS011;36359;41.556;-8.418;2023-05-10T09:05:38;10.75;;;1.92;;
50429;SDS011;36359;41.556;-8.418;2023-05-10T09:08:04;10.00;;;2.10;;
50429;SDS011;36359;41.556;-8.418;2023-05-10T09:10:31;11.40;;;1.52;;
50429;SDS011;36359;41.556;-8.418;2023-05-10T09:12:57;14.25;;;1.50;;
50429;SDS011;36359;41.556;-8.418;2023-05-10T09:15:24;9.27;;;1.65;;
50429;SDS011;36359;41.556;-8.418;2023-05-10T09:17:52;8.27;;;1.90;;
50429;SDS011;36359;41.556;-8.418;2023-05-10T09:20:20;12.98;;;2.50;;
50429;SDS011;36359;41.556;-8.418;2023-05-10T09:22:48;11.13;;;2.83;;
50429;SDS011;36359;41.556;-8.418;2023-05-10T09:25:15;9.55;;;1.88;;
50429;SDS011;36359;41.556;-8.418;2023-05-10T09:27:46;10.70;;;3.72;;
50429;SDS011;36359;41.556;-8.418;2023-05-10T09:32:43;9.18;;;1.90;;
50429;SDS011;36359;41.556;-8.418;2023-05-10T09:35:14;6.03;;;1.50;;
50429;SDS011;36359;41.556;-8.418;2023-05-10T09:37:45;7.63;;;1.98;;
50429;SDS011;36359;41.556;-8.418;2023-05-10T09:40:21;6.45;;;2.25;;
50429;SDS011;36359;41.556;-8.418;2023-05-10T09:42:53;15.07;;;3.85;;
50429;SDS011;36359;41.556;-8.418;2023-05-10T09:45:21;10.57;;;3.47;;
50429;SDS011;36359;41.556;-8.418;2023-05-10T09:47:49;10.35;;;1.75;;
50429;SDS011;36359;41.556;-8.418;2023-05-10T09:50:15;11.65;;;2.08;;
50429;SDS011;36359;41.556;-8.418;2023-05-10T09:52:54;11.65;;;2.70;;
50429;SDS011;36359;41.556;-8.418;2023-05-10T09:55:38;8.10;;;1.83;;
50429;SDS011;36359;41.556;-8.418;2023-05-10T09:58:05;7.55;;;1.65;;
50429;SDS011;36359;41.556;-8.418;2023-05-10T10:00:39;6.63;;;2.05;;
50429;SDS011;36359;41.556;-8.418;2023-05-10T10:03:06;15.00;;;2.10;;
50429;SDS011;36359;41.556;-8.418;2023-05-10T10:05:39;9.00;;;1.33;;
50429;SDS011;36359;41.556;-8.418;2023-05-10T10:08:06;7.18;;;1.02;;
50429;SDS011;36359;41.556;-8.418;2023-05-10T10:10:32;6.50;;;1.38;;
50429;SDS011;36359;41.556;-8.418;2023-05-10T10:12:59;7.40;;;1.73;;
50429;SDS011;36359;41.556;-8.418;2023-05-10T10:15:25;8.45;;;1.42;;
50429;SDS011;36359;41.556;-8.418;2023-05-10T10:17:52;7.15;;;1.42;;
50429;SDS011;36359;41.556;-8.418;2023-05-10T10:20:20;9.23;;;2.20;;
50429;SDS011;36359;41.556;-8.418;2023-05-10T10:22:56;8.05;;;1.85;;
50429;SDS011;36359;41.556;-8.418;2023-05-10T10:25:22;11.32;;;2.00;;
50429;SDS011;36359;41.556;-8.418;2023-05-10T10:30:27;8.63;;;1.52;;
50429;SDS011;36359;41.556;-8.418;2023-05-10T10:33:29;5.63;;;1.13;;
50429;SDS011;36359;41.556;-8.418;2023-05-10T10:36:08;5.90;;;1.00;;
50429;SDS011;36359;41.556;-8.418;2023-05-10T10:49:43;7.57;;;1.98;;
50429;SDS011;36359;41.556;-8.418;2023-05-10T10:52:24;5.63;;;1.08;;
50429;SDS011;36359;41.556;-8.418;2023-05-10T10:57:24;5.78;;;1.00;;
50429;SDS011;36359;41.556;-8.418;2023-05-10T10:59:51;3.10;;;0.70;;
50429;SDS011;36359;41.556;-8.418;2023-05-10T11:10:37;6.63;;;0.80;;
50429;SDS011;36359;41.556;-8.418;2023-05-10T11:13:07;3.95;;;0.80;;
50429;SDS011;36359;41.556;-8.418;2023-05-10T11:15:35;7.07;;;0.95;;
50429;SDS011;36359;41.556;-8.418;2023-05-10T11:20:50;11.13;;;3.38;;
50429;SDS011;36359;41.556;-8.418;2023-05-10T11:23:28;10.52;;;3.08;;
50429;SDS011;36359;41.556;-8.418;2023-05-10T11:25:59;6.78;;;1.20;;
50429;SDS011;36359;41.556;-8.418;2023-05-10T11:28:30;4.55;;;0.98;;
50429;SDS011;36359;41.556;-8.418;2023-05-10T11:30:55;5.25;;;0.80;;
50429;SDS011;36359;41.556;-8.418;2023-05-10T11:33:22;4.95;;;0.88;;
50429;SDS011;36359;41.556;-8.418;2023-05-10T11:35:48;4.10;;;0.98;;
50429;SDS011;36359;41.556;-8.418;2023-05-10T11:38:14;4.55;;;0.57;;
50429;SDS011;36359;41.556;-8.418;2023-05-10T11:40:40;8.00;;;1.10;;
50429;SDS011;36359;41.556;-8.418;2023-05-10T11:43:06;3.05;;;0.88;;
50429;SDS011;36359;41.556;-8.418;2023-05-10T11:45:34;4.65;;;1.10;;
50429;SDS011;36359;41.556;-8.418;2023-05-10T11:48:04;3.38;;;0.60;;
50429;SDS011;36359;41.556;-8.418;2023-05-10T11:50:30;3.08;;;0.60;;
50429;SDS011;36359;41.556;-8.418;2023-05-10T11:52:58;4.40;;;0.80;;
50429;SDS011;36359;41.556;-8.418;2023-05-10T11:55:24;5.18;;;0.60;;
50429;SDS011;36359;41.556;-8.418;2023-05-10T11:57:54;4.43;;;0.60;;
50429;SDS011;36359;41.556;-8.418;2023-05-10T12:00:20;6.00;;;1.40;;
50429;SDS011;36359;41.556;-8.418;2023-05-10T12:02:48;4.90;;;1.13;;
50429;SDS011;36359;41.556;-8.418;2023-05-10T12:05:15;5.75;;;1.42;;
50429;SDS011;36359;41.556;-8.418;2023-05-10T12:07:41;7.25;;;0.90;;
50429;SDS011;36359;41.556;-8.418;2023-05-10T12:10:11;4.32;;;0.93;;
50429;SDS011;36359;41.556;-8.418;2023-05-10T12:12:56;3.75;;;0.60;;
50429;SDS011;36359;41.556;-8.418;2023-05-10T12:15:22;5.50;;;0.90;;
50429;SDS011;36359;41.556;-8.418;2023-05-10T12:17:50;6.80;;;1.00;;
50429;SDS011;36359;41.556;-8.418;2023-05-10T12:20:27;5.07;;;1.10;;
50429;SDS011;36359;41.556;-8.418;2023-05-10T12:22:54;3.72;;;0.77;;
50429;SDS011;36359;41.556;-8.418;2023-05-10T12:25:21;6.95;;;0.90;;
50429;SDS011;36359;41.556;-8.418;2023-05-10T12:27:54;4.22;;;0.88;;
50429;SDS011;36359;41.556;-8.418;2023-05-10T12:30:22;3.40;;;0.73;;
50429;SDS011;36359;41.556;-8.418;2023-05-10T12:32:49;3.78;;;1.17;;
50429;SDS011;36359;41.556;-8.418;2023-05-10T12:35:15;5.00;;;1.40;;
50429;SDS011;36359;41.556;-8.418;2023-05-10T12:37:42;2.40;;;0.70;;
50429;SDS011;36359;41.556;-8.418;2023-05-10T12:40:09;4.80;;;1.50;;
50429;SDS011;36359;41.556;-8.418;2023-05-10T12:42:36;3.28;;;0.80;;
50429;SDS011;36359;41.556;-8.418;2023-05-10T12:45:04;4.45;;;0.95;;
50429;SDS011;36359;41.556;-8.418;2023-05-10T12:47:31;1.83;;;0.50;;
50429;SDS011;36359;41.556;-8.418;2023-05-10T12:49:57;5.40;;;1.25;;
50429;SDS011;36359;41.556;-8.418;2023-05-10T12:52:25;4.18;;;0.73;;
50429;SDS011;36359;41.556;-8.418;2023-05-10T12:54:51;5.15;;;0.98;;
50429;SDS011;36359;41.556;-8.418;2023-05-10T12:57:18;5.18;;;0.95;;
50429;SDS011;36359;41.556;-8.418;2023-05-10T12:59:45;7.40;;;1.58;;
50429;SDS011;36359;41.556;-8.418;2023-05-10T13:02:11;8.70;;;1.15;;
50429;SDS011;36359;41.556;-8.418;2023-05-10T13:04:36;4.03;;;0.63;;
50429;SDS011;36359;41.556;-8.418;2023-05-10T13:07:06;5.32;;;0.88;;
50429;SDS011;36359;41.556;-8.418;2023-05-10T13:09:32;5.05;;;0.80;;
50429;SDS011;36359;41.556;-8.418;2023-05-10T13:11:57;7.28;;;1.00;;
50429;SDS011;36359;41.556;-8.418;2023-05-10T13:14:24;4.82;;;0.80;;
50429;SDS011;36359;41.556;-8.418;2023-05-10T13:16:50;5.70;;;1.17;;
50429;SDS011;36359;41.556;-8.418;2023-05-10T13:19:16;4.72;;;1.00;;
50429;SDS011;36359;41.556;-8.418;2023-05-10T13:21:43;6.72;;;1.20;;
50429;SDS011;36359;41.556;-8.418;2023-05-10T13:24:12;4.45;;;0.70;;
50429;SDS011;36359;41.556;-8.418;2023-05-10T13:26:42;4.78;;;1.23;;
50429;SDS011;36359;41.556;-8.418;2023-05-10T13:29:08;6.47;;;1.00;;
50429;SDS011;36359;41.556;-8.418;2023-05-10T13:31:34;5.50;;;0.90;;
50429;SDS011;36359;41.556;-8.418;2023-05-10T13:34:01;4.97;;;1.17;;
50429;SDS011;36359;41.556;-8.418;2023-05-10T13:36:27;3.53;;;0.60;;
50429;SDS011;36359;41.556;-8.418;2023-05-10T13:38:53;4.32;;;0.68;;
50429;SDS011;36359;41.556;-8.418;2023-05-10T13:41:19;2.70;;;0.60;;
50429;SDS011;36359;41.556;-8.418;2023-05-10T13:43:45;3.47;;;0.70;;
50429;SDS011;36359;41.556;-8.418;2023-05-10T13:46:10;4.10;;;0.80;;
50429;SDS011;36359;41.556;-8.418;2023-05-10T13:48:36;4.00;;;0.60;;
50429;SDS011;36359;41.556;-8.418;2023-05-10T13:51:02;8.15;;;1.33;;
50429;SDS011;36359;41.556;-8.418;2023-05-10T13:53:28;6.13;;;0.82;;
50429;SDS011;36359;41.556;-8.418;2023-05-10T13:55:54;4.13;;;0.60;;
50429;SDS011;36359;41.556;-8.418;2023-05-10T13:58:20;3.40;;;0.50;;
50429;SDS011;36359;41.556;-8.418;2023-05-10T14:00:45;7.10;;;1.50;;
50429;SDS011;36359;41.556;-8.418;2023-05-10T14:03:11;6.45;;;0.90;;
50429;SDS011;36359;41.556;-8.418;2023-05-10T14:05:37;5.82;;;1.00;;
50429;SDS011;36359;41.556;-8.418;2023-05-10T14:08:03;5.28;;;0.82;;
50429;SDS011;36359;41.556;-8.418;2023-05-10T14:10:29;7.13;;;1.30;;
50429;SDS011;36359;41.556;-8.418;2023-05-10T14:12:55;7.75;;;1.17;;
50429;SDS011;36359;41.556;-8.418;2023-05-10T14:15:21;5.57;;;1.10;;
50429;SDS011;36359;41.556;-8.418;2023-05-10T14:17:47;6.68;;;1.20;;
50429;SDS011;36359;41.556;-8.418;2023-05-10T14:20:13;5.65;;;0.82;;
50429;SDS011;36359;41.556;-8.418;2023-05-10T14:22:38;4.10;;;0.82;;
50429;SDS011;36359;41.556;-8.418;2023-05-10T14:25:04;4.63;;;0.95;;
50429;SDS011;36359;41.556;-8.418;2023-05-10T14:27:30;5.70;;;0.98;;
50429;SDS011;36359;41.556;-8.418;2023-05-10T14:29:56;4.00;;;0.70;;
50429;SDS011;36359;41.556;-8.418;2023-05-10T14:32:22;8.23;;;1.45;;
50429;SDS011;36359;41.556;-8.418;2023-05-10T14:34:48;7.30;;;0.93;;
50429;SDS011;36359;41.556;-8.418;2023-05-10T14:37:13;4.05;;;0.85;;
50429;SDS011;36359;41.556;-8.418;2023-05-10T14:39:40;6.45;;;1.13;;
50429;SDS011;36359;41.556;-8.418;2023-05-10T14:42:07;7.43;;;1.50;;
50429;SDS011;36359;41.556;-8.418;2023-05-10T14:44:33;5.40;;;1.45;;
50429;SDS011;36359;41.556;-8.418;2023-05-10T14:46:59;8.73;;;1.63;;
50429;SDS011;36359;41.556;-8.418;2023-05-10T14:49:24;4.18;;;1.20;;
50429;SDS011;36359;41.556;-8.418;2023-05-10T14:51:51;9.18;;;1.40;;
50429;SDS011;36359;41.556;-8.418;2023-05-10T14:54:17;10.80;;;1.35;;
50429;SDS011;36359;41.556;-8.418;2023-05-10T14:56:43;5.13;;;1.08;;
50429;SDS011;36359;41.556;-8.418;2023-05-10T14:59:08;5.43;;;0.98;;
50429;SDS011;36359;41.556;-8.418;2023-05-10T15:01:34;7.20;;;1.40;;
50429;SDS011;36359;41.556;-8.418;2023-05-10T15:04:02;7.38;;;1.23;;
50429;SDS011;36359;41.556;-8.418;2023-05-10T15:06:32;5.25;;;1.15;;
50429;SDS011;36359;41.556;-8.418;2023-05-10T15:09:00;6.68;;;0.80;;
50429;SDS011;36359;41.556;-8.418;2023-05-10T15:11:26;5.75;;;0.98;;
50429;SDS011;36359;41.556;-8.418;2023-05-10T15:13:53;6.00;;;1.00;;
50429;SDS011;36359;41.556;-8.418;2023-05-10T15:16:18;5.55;;;1.00;;
50429;SDS011;36359;41.556;-8.418;2023-05-10T15:18:44;9.32;;;1.00;;
50429;SDS011;36359;41.556;-8.418;2023-05-10T15:21:10;5.90;;;0.98;;
50429;SDS011;36359;41.556;-8.418;2023-05-10T15:23:36;6.63;;;1.17;;
50429;SDS011;36359;41.556;-8.418;2023-05-10T15:26:02;6.10;;;0.75;;
50429;SDS011;36359;41.556;-8.418;2023-05-10T15:28:28;6.88;;;1.23;;
50429;SDS011;36359;41.556;-8.418;2023-05-10T15:30:54;6.50;;;0.82;;
50429;SDS011;36359;41.556;-8.418;2023-05-10T15:33:21;6.30;;;1.08;;